»·PEaware :: N94247 KDVO-KSBP

N94247 :: KDVO-KSBP

FLIGHT INFORMATION

Flight Status: Arrived
Operator: Privately registered:
United States
More flights under this callsign
Pilot: Michael C. (12189)
Aircraft: PILATUS PC-12 EAGLE
(PC12)
More flights by this aircraft type
Origin: KDVO Gnoss
United States
Destination: KSBP San Luis Co Regl
United States
More flights between these airports :: More routes between these airports
Route: +
File this flight plan on PilotEdge
Remarks: FIRST FLIGHT ON PILOT EDGE
Altitude:
(Current/Filed)
9,500ft
Speed:
(Current/Filed)
200kts
Departed: 01-Aug-16 09:10 AM
Arrived: 01-Aug-16 10:21 AM
Distance/Time
Traveled:
197nm/1:11
Distance/Time
To Go:
Arrived

Flight Plot

Page will automatically refresh every two minutes.

Flight plan parsing failed; only flown route is shown


Map Options




Map Legend


Flown Route
Filed Route
Departure Airport
Arrival Airport
Navaid (VOR, NDB)
Fix

Horizontal Profiles

Position Reports

Time Latitude Longitude Heading Altitude Ground
Speed
01-Aug-16 08:57 38.140022 -122.555600 238 4ft 0kts
01-Aug-16 08:58 38.140022 -122.555600 238 4ft 0kts
01-Aug-16 08:59 38.140022 -122.555600 238 4ft 0kts
01-Aug-16 09:00 38.140022 -122.555600 238 4ft 0kts
01-Aug-16 09:01 38.139811 -122.555684 163 4ft 4kts
01-Aug-16 09:02 38.139117 -122.554350 54 4ft 7kts
01-Aug-16 09:03 38.139959 -122.553262 326 4ft 0kts
01-Aug-16 09:04 38.155256 -122.564808 329 804ft 103kts
01-Aug-16 09:05 38.166310 -122.551279 146 2660ft 110kts
01-Aug-16 09:06 38.150673 -122.575011 303 4698ft 126kts
01-Aug-16 09:07 38.173640 -122.557550 95 6999ft 147kts
01-Aug-16 09:08 38.146716 -122.528265 182 9356ft 139kts
01-Aug-16 09:09 38.094093 -122.519389 160 9534ft 234kts
01-Aug-16 09:10 38.038939 -122.485703 154 9530ft 258kts
01-Aug-16 09:11 37.994306 -122.442130 152 9529ft 263kts
01-Aug-16 09:12 37.926666 -122.407851 155 9529ft 264kts
01-Aug-16 09:13 37.872809 -122.372290 153 9519ft 257kts
01-Aug-16 09:14 37.801506 -122.323783 153 9508ft 249kts
01-Aug-16 09:15 37.751050 -122.289460 153 9505ft 246kts
01-Aug-16 09:16 37.682034 -122.242584 153 9504ft 244kts
01-Aug-16 09:17 37.632219 -122.208821 153 9503ft 244kts
01-Aug-16 09:18 37.572169 -122.168187 153 9501ft 245kts
01-Aug-16 09:19 37.512818 -122.128106 153 9501ft 246kts
01-Aug-16 09:20 37.453109 -122.087852 153 9501ft 246kts
01-Aug-16 09:21 37.394239 -122.048231 153 9502ft 247kts
01-Aug-16 09:22 37.333755 -122.007598 153 9502ft 248kts
01-Aug-16 09:23 37.272973 -121.966840 153 9502ft 248kts
01-Aug-16 09:24 37.212207 -121.926165 153 9509ft 247kts
01-Aug-16 09:25 37.152050 -121.885857 153 9514ft 247kts
01-Aug-16 09:26 37.091765 -121.845401 153 9519ft 246kts
01-Aug-16 09:27 37.031065 -121.804992 153 9519ft 247kts
01-Aug-16 09:28 36.970108 -121.764491 153 9519ft 248kts
01-Aug-16 09:29 36.909215 -121.724093 153 9517ft 249kts
01-Aug-16 09:30 36.848267 -121.683746 153 9513ft 245kts
01-Aug-16 09:31 36.788461 -121.644197 153 9513ft 243kts
01-Aug-16 09:32 36.728876 -121.604906 153 9515ft 242kts
01-Aug-16 09:33 36.669176 -121.565588 153 9513ft 242kts
01-Aug-16 09:34 36.609398 -121.526296 153 9510ft 243kts
01-Aug-16 09:35 36.549666 -121.487106 153 9511ft 243kts
01-Aug-16 09:36 36.489969 -121.448002 153 9510ft 243kts
01-Aug-16 09:37 36.430801 -121.409314 153 9511ft 243kts
01-Aug-16 09:38 36.371010 -121.370296 153 9522ft 242kts
01-Aug-16 09:39 36.311608 -121.331583 153 9529ft 242kts
01-Aug-16 09:40 36.252872 -121.293374 153 9529ft 242kts
01-Aug-16 09:41 36.193064 -121.254536 153 9529ft 242kts
01-Aug-16 09:42 36.133421 -121.215883 153 9528ft 242kts
01-Aug-16 09:43 36.073424 -121.177041 153 9524ft 246kts
01-Aug-16 09:44 36.012299 -121.137579 153 9521ft 249kts
01-Aug-16 09:45 35.950866 -121.097970 152 9520ft 250kts
01-Aug-16 09:46 35.889132 -121.058231 152 9520ft 250kts
01-Aug-16 09:47 35.827675 -121.018739 152 9520ft 249kts
01-Aug-16 09:48 35.766055 -120.979212 152 9520ft 249kts
01-Aug-16 09:49 35.704471 -120.939771 152 9520ft 249kts
01-Aug-16 09:50 35.643067 -120.900463 152 9035ft 248kts
01-Aug-16 09:51 35.582799 -120.861815 152 7917ft 249kts
01-Aug-16 09:52 35.520385 -120.822053 152 6416ft 255kts
01-Aug-16 09:53 35.457563 -120.782115 152 4938ft 253kts
01-Aug-16 09:54 35.398922 -120.744856 152 4188ft 229kts
01-Aug-16 09:55 35.338162 -120.744121 209 3061ft 226kts
01-Aug-16 09:56 35.311704 -120.804493 275 3000ft 203kts
01-Aug-16 09:57 35.327648 -120.862148 283 2990ft 141kts
01-Aug-16 09:58 35.343705 -120.899576 343 3019ft 171kts
01-Aug-16 09:59 35.376019 -120.876204 49 2996ft 127kts
01-Aug-16 10:00 35.397720 -120.846557 49 2994ft 106kts
01-Aug-16 10:01 35.425095 -120.827567 40 2995ft 110kts
01-Aug-16 10:02 35.449815 -120.849206 283 2998ft 172kts
01-Aug-16 10:03 35.443228 -120.902418 192 2993ft 171kts
01-Aug-16 10:04 35.407719 -120.887314 153 3007ft 108kts
01-Aug-16 10:05 35.380089 -120.871386 153 2997ft 110kts
01-Aug-16 10:06 35.357652 -120.850140 126 2996ft 97kts
01-Aug-16 10:07 35.342093 -120.823427 126 3002ft 98kts
01-Aug-16 10:08 35.326066 -120.795517 125 2998ft 100kts
01-Aug-16 10:09 35.310738 -120.768819 125 2539ft 88kts
01-Aug-16 10:10 35.296626 -120.744238 125 2080ft 91kts
01-Aug-16 10:11 35.282564 -120.719693 125 1600ft 88kts
01-Aug-16 10:12 35.268507 -120.695186 125 1124ft 87kts
01-Aug-16 10:13 35.254577 -120.670915 125 655ft 85kts
01-Aug-16 10:14 35.241093 -120.647574 124 196ft 88kts
01-Aug-16 10:15 35.237778 -120.640446 88 190ft 0kts
01-Aug-16 10:16 35.237655 -120.639645 124 192ft 5kts
01-Aug-16 10:17 35.236965 -120.638443 123 197ft 3kts
01-Aug-16 10:18 35.236209 -120.637109 125 202ft 4kts
01-Aug-16 10:19 35.236682 -120.636236 11 206ft 2kts
01-Aug-16 10:20 35.236662 -120.636134 178 206ft 0kts
01-Aug-16 10:21 35.236662 -120.636134 178 206ft 0kts
01-Aug-16 10:22 35.236662 -120.636134 178 206ft 0kts

Navigation Log

Ident Type
Flight plan parsing failed, navigation log unavailable